Time;durP1;ratioP1;P1;durP2;ratioP2;P2;SDS_P1;SDS_P2;PMS_P1;PMS_P2;Temp;Humidity;BMP_temperature;BMP_pressure;BME280_temperature;BME280_humidity;BME280_pressure;Samples;Min_cycle;Max_cycle;Signal;HPM_P1;HPM_P2
2022/05/15 00:02:24;;;;;;;8.43;1.73;;;7.80;99.90;7.00;100341;;;;574053;247;24135;-74
2022/05/15 00:04:52;;;;;;;3.27;1.13;;;7.80;99.90;7.00;100337;;;;573841;247;24188;-75
2022/05/15 00:07:21;;;;;;;5.03;1.30;;;7.80;99.90;7.00;100341;;;;573265;247;24082;-76
2022/05/15 00:09:49;;;;;;;8.80;1.57;;;7.80;99.90;7.00;100344;;;;582799;244;24074;-75
2022/05/15 00:12:20;;;;;;;6.03;1.53;;;7.80;99.90;7.00;100338;;;;574074;246;24100;-77
2022/05/15 00:14:45;;;;;;;2.73;1.57;;;7.80;99.90;6.90;100335;;;;573765;247;24136;-77
2022/05/15 00:17:13;;;;;;;7.17;1.87;;;7.70;99.90;6.90;100339;;;;571087;240;24096;-76
2022/05/15 00:19:46;;;;;;;6.17;1.97;;;7.70;99.90;6.90;100341;;;;573784;247;24128;-75
2022/05/15 00:22:10;;;;;;;9.27;2.40;;;7.70;99.90;6.90;100342;;;;570229;247;24093;-78
2022/05/15 00:24:40;;;;;;;4.93;1.80;;;7.70;99.90;6.90;100341;;;;573526;247;24087;-76
2022/05/15 00:27:10;;;;;;;7.23;1.67;;;7.70;99.90;6.90;100341;;;;582299;247;24147;-74
2022/05/15 00:29:36;;;;;;;4.77;1.87;;;7.60;99.90;6.80;100340;;;;573416;246;24137;-77
2022/05/15 00:32:06;;;;;;;5.17;1.70;;;7.60;99.90;6.80;100338;;;;573712;247;24107;-75
2022/05/15 00:34:35;;;;;;;4.10;1.40;;;7.60;99.90;6.80;100342;;;;573418;247;24137;-76
2022/05/15 00:36:59;;;;;;;3.83;0.87;;;7.60;99.90;6.80;100337;;;;571314;246;24118;-75
2022/05/15 00:39:27;;;;;;;1.23;1.17;;;7.60;99.90;6.70;100338;;;;574745;246;24079;-73
2022/05/15 00:41:55;;;;;;;3.00;1.43;;;7.50;99.90;6.70;100343;;;;574665;247;24089;-75
2022/05/15 00:44:23;;;;;;;1.50;1.40;;;7.50;99.90;6.70;100337;;;;571847;247;24095;-74
2022/05/15 00:46:51;;;;;;;4.07;1.30;;;7.50;99.90;6.70;100335;;;;574656;247;24109;-76
2022/05/15 00:49:19;;;;;;;4.10;1.23;;;7.50;99.90;6.70;100344;;;;574384;247;24129;-75
2022/05/15 00:51:50;;;;;;;7.47;1.33;;;7.50;99.90;6.80;100337;;;;574045;247;24116;-76
2022/05/15 00:54:21;;;;;;;8.97;1.70;;;7.50;99.90;6.70;100344;;;;570490;247;24105;-75
2022/05/15 00:56:54;;;;;;;3.20;1.73;;;7.50;99.90;6.70;100338;;;;572498;247;24121;-74
2022/05/15 00:59:22;;;;;;;8.27;1.83;;;7.50;99.90;6.70;100343;;;;569579;247;24092;-76
2022/05/15 01:01:50;;;;;;;14.90;1.83;;;7.50;99.90;6.70;100343;;;;572955;247;24113;-74
2022/05/15 01:04:18;;;;;;;5.73;1.57;;;7.50;99.90;6.70;100352;;;;572643;247;24089;-73
2022/05/15 01:06:49;;;;;;;7.27;0.90;;;7.50;99.90;6.70;100342;;;;582309;247;24144;-74
2022/05/15 01:09:14;;;;;;;3.97;1.30;;;7.40;99.90;6.70;100341;;;;563019;251;24184;-73
2022/05/15 01:11:43;;;;;;;2.43;1.53;;;7.40;99.90;6.60;100335;;;;573031;247;24132;-75
2022/05/15 01:14:11;;;;;;;5.23;1.60;;;7.40;99.90;6.60;100343;;;;572647;247;24137;-72
2022/05/15 01:16:38;;;;;;;2.87;1.17;;;7.40;99.90;6.60;100344;;;;581592;247;24132;-78
2022/05/15 01:19:09;;;;;;;5.10;2.23;;;7.40;99.90;6.60;100346;;;;563717;251;24121;-79
2022/05/15 01:21:42;;;;;;;4.33;1.20;;;7.40;99.90;6.60;100350;;;;573858;247;24113;-78
2022/05/15 01:24:10;;;;;;;5.23;2.20;;;7.40;99.90;6.60;100356;;;;573372;245;25133;-75
2022/05/15 01:26:40;;;;;;;6.10;2.50;;;7.30;99.90;6.50;100353;;;;564080;251;24069;-78
2022/05/15 01:29:11;;;;;;;9.03;1.53;;;7.30;99.90;6.50;100355;;;;582814;247;24129;-77
2022/05/15 01:31:37;;;;;;;6.57;1.43;;;7.30;99.90;6.50;100349;;;;573914;240;24069;-75
2022/05/15 01:34:05;;;;;;;2.10;1.60;;;7.30;99.90;6.50;100359;;;;573545;247;25120;-76
2022/05/15 01:36:35;;;;;;;5.73;1.47;;;7.20;99.90;6.40;100359;;;;572370;247;24094;-74
2022/05/15 01:39:00;;;;;;;7.70;1.73;;;7.20;99.90;6.40;100360;;;;563095;251;24161;-75
2022/05/15 01:41:28;;;;;;;2.80;1.03;;;7.20;99.90;6.30;100363;;;;582148;247;24097;-75
2022/05/15 01:43:56;;;;;;;9.03;2.00;;;7.10;99.90;6.30;100373;;;;572677;247;24068;-74
2022/05/15 01:46:24;;;;;;;4.37;1.60;;;7.10;99.90;6.30;100372;;;;572076;247;24098;-74
2022/05/15 01:48:53;;;;;;;4.40;1.50;;;7.10;99.90;6.20;100370;;;;560596;246;24179;-74
2022/05/15 01:51:24;;;;;;;4.17;1.37;;;7.00;99.90;6.20;100371;;;;572053;247;24118;-74
2022/05/15 01:53:49;;;;;;;6.07;1.47;;;7.00;99.90;6.20;100376;;;;563737;251;24075;-73
2022/05/15 01:56:20;;;;;;;5.30;1.47;;;7.00;99.90;6.10;100367;;;;564248;251;24142;-74
2022/05/15 01:58:45;;;;;;;4.93;1.63;;;6.90;99.90;6.10;100379;;;;563269;251;26357;-76
2022/05/15 02:01:13;;;;;;;3.40;1.47;;;6.90;99.90;6.10;100374;;;;573503;247;24114;-75
2022/05/15 02:03:42;;;;;;;2.73;1.23;;;6.90;99.90;6.00;100374;;;;562996;251;24110;-74
2022/05/15 02:06:10;;;;;;;8.80;1.90;;;6.90;99.90;6.00;100381;;;;561525;251;24075;-74
2022/05/15 02:08:41;;;;;;;9.70;1.90;;;6.80;99.90;6.00;100375;;;;573513;247;24094;-74
2022/05/15 02:11:05;;;;;;;3.30;1.27;;;6.80;99.90;6.00;100371;;;;574001;247;24146;-76
2022/05/15 02:13:35;;;;;;;5.80;1.30;;;6.80;99.90;6.00;100379;;;;572844;247;24091;-76
2022/05/15 02:16:03;;;;;;;4.57;1.70;;;6.80;99.90;6.00;100386;;;;565316;252;24092;-75
2022/05/15 02:18:31;;;;;;;2.23;1.40;;;6.80;99.90;6.00;100389;;;;551862;257;24136;-76
2022/05/15 02:20:59;;;;;;;4.93;1.57;;;6.80;99.90;6.00;100390;;;;561137;252;24085;-75
2022/05/15 02:23:27;;;;;;;3.37;1.20;;;6.80;99.90;6.00;100384;;;;551081;257;24111;-77
2022/05/15 02:26:00;;;;;;;4.83;1.73;;;6.80;99.90;6.00;100388;;;;560961;252;24163;-76
2022/05/15 02:28:24;;;;;;;3.87;1.77;;;6.80;99.90;6.00;100386;;;;558436;257;24101;-76
2022/05/15 02:30:52;;;;;;;2.23;1.40;;;6.80;99.90;6.00;100406;;;;569215;252;24093;-76
2022/05/15 02:33:20;;;;;;;6.70;1.57;;;6.80;99.90;6.00;100406;;;;550688;257;24110;-75
2022/05/15 02:35:49;;;;;;;4.77;1.83;;;6.80;99.90;6.00;100404;;;;549020;257;24172;-76
2022/05/15 02:38:16;;;;;;;4.00;1.53;;;6.80;99.90;6.00;100399;;;;560410;252;24141;-76
2022/05/15 02:40:44;;;;;;;5.57;1.63;;;6.80;99.90;6.00;100411;;;;559194;257;24166;-75
2022/05/15 02:43:12;;;;;;;4.77;1.43;;;6.80;99.90;5.90;100398;;;;560849;252;24216;-75
2022/05/15 02:45:40;;;;;;;5.03;1.40;;;6.80;99.90;6.00;100409;;;;550584;257;24189;-76
2022/05/15 02:51:03;;;;;;;4.23;1.87;;;6.80;99.90;5.90;100405;;;;560739;252;24101;-77
2022/05/15 02:53:22;;;;;;;10.67;2.27;;;6.80;99.90;6.00;100407;;;;560284;252;24129;-76
2022/05/15 02:55:51;;;;;;;7.53;1.80;;;6.80;99.90;6.00;100409;;;;550060;257;24114;-76
2022/05/15 02:58:22;;;;;;;4.33;1.90;;;6.80;99.90;6.00;100408;;;;560075;252;24101;-75
2022/05/15 03:00:46;;;;;;;5.40;1.77;;;6.80;99.90;6.10;100402;;;;550584;256;24109;-76
2022/05/15 03:03:14;;;;;;;4.90;1.60;;;6.90;99.90;6.10;100407;;;;570571;252;24092;-74
2022/05/15 03:05:42;;;;;;;3.20;1.57;;;6.90;99.90;6.10;100401;;;;551107;257;24259;-75
2022/05/15 03:08:10;;;;;;;5.37;1.73;;;6.90;99.90;6.10;100399;;;;573463;246;24146;-76
2022/05/15 03:10:38;;;;;;;7.07;1.80;;;6.90;99.90;6.20;100400;;;;564151;251;24129;-75
2022/05/15 03:13:06;;;;;;;1.87;1.50;;;7.00;99.90;6.20;100397;;;;574533;247;24093;-74
2022/05/15 03:15:34;;;;;;;2.83;1.30;;;7.00;99.90;6.20;100400;;;;563989;251;24127;-74
2022/05/15 03:18:02;;;;;;;11.23;1.73;;;7.00;99.90;6.30;100397;;;;574514;247;24178;-77
2022/05/15 03:20:30;;;;;;;4.30;1.70;;;7.10;99.90;6.30;100404;;;;561660;251;24107;-73
2022/05/15 03:22:58;;;;;;;4.73;1.53;;;7.10;99.90;6.40;100403;;;;574671;247;24079;-76
2022/05/15 03:25:27;;;;;;;2.80;1.30;;;7.20;99.90;6.50;100409;;;;563783;251;24141;-76
2022/05/15 03:27:53;;;;;;;5.13;1.57;;;7.20;99.90;6.50;100415;;;;574581;247;24111;-76
2022/05/15 03:30:24;;;;;;;4.47;1.20;;;7.30;99.90;6.60;100423;;;;563696;251;24096;-76
2022/05/15 03:32:49;;;;;;;6.33;1.07;;;7.40;99.90;6.70;100424;;;;574526;247;24108;-76
2022/05/15 03:35:17;;;;;;;6.30;1.37;;;7.50;99.90;6.80;100426;;;;563902;251;24112;-76
2022/05/15 03:37:45;;;;;;;2.90;1.23;;;7.60;99.90;6.90;100423;;;;574440;247;24076;-74
2022/05/15 03:40:17;;;;;;;2.37;1.47;;;7.70;99.90;7.10;100426;;;;563790;252;24184;-76
2022/05/15 03:42:41;;;;;;;5.90;1.40;;;7.80;99.90;7.80;100439;;;;582931;247;24140;-75
2022/05/15 03:45:12;;;;;;;3.73;1.87;;;8.40;99.90;8.80;100435;;;;563730;252;24116;-75
2022/05/15 03:47:38;;;;;;;5.20;1.10;;;9.40;99.90;9.80;100442;;;;574266;247;24159;-74
2022/05/15 03:50:08;;;;;;;5.33;1.50;;;10.40;99.90;10.80;100450;;;;560906;252;24125;-75
2022/05/15 03:52:32;;;;;;;5.90;1.70;;;11.30;99.90;11.60;100445;;;;574120;247;24191;-77
2022/05/15 03:55:00;;;;;;;4.17;1.77;;;12.20;99.90;12.20;100449;;;;563917;252;24108;-76
2022/05/15 03:57:29;;;;;;;4.33;1.53;;;13.60;99.90;12.80;100453;;;;574510;247;24103;-77
2022/05/15 03:59:58;;;;;;;5.17;1.60;;;13.60;99.90;13.40;100460;;;;563556;252;24160;-74
2022/05/15 04:02:26;;;;;;;10.90;1.70;;;14.30;99.90;14.10;100471;;;;573539;247;24129;-75
2022/05/15 04:04:54;;;;;;;6.20;1.57;;;15.00;99.90;14.80;100465;;;;569556;252;24102;-75
2022/05/15 04:07:22;;;;;;;4.10;1.50;;;15.70;99.90;15.40;100471;;;;573558;247;24083;-76
2022/05/15 04:09:53;;;;;;;7.43;1.97;;;16.40;99.90;16.10;100471;;;;562788;252;24109;-76
2022/05/15 04:12:19;;;;;;;3.77;1.43;;;17.60;99.90;16.70;100476;;;;582871;243;24079;-77
2022/05/15 04:14:48;;;;;;;7.33;1.90;;;17.60;99.90;16.90;100472;;;;563822;251;24106;-75
2022/05/15 04:17:16;;;;;;;7.23;2.00;;;18.10;99.90;17.40;100479;;;;574237;246;24077;-75
2022/05/15 04:19:44;;;;;;;3.53;1.47;;;18.50;99.90;17.70;100476;;;;563464;251;24163;-75
2022/05/15 04:22:11;;;;;;;4.63;1.83;;;18.90;99.90;18.10;100483;;;;573941;247;24089;-75
2022/05/15 04:24:39;;;;;;;7.87;2.33;;;19.30;98.70;18.70;100499;;;;562898;251;23143;-75
2022/05/15 04:27:07;;;;;;;4.80;1.57;;;19.80;96.60;19.10;100496;;;;573687;247;24079;-76
2022/05/15 04:29:35;;;;;;;7.30;1.90;;;20.30;94.50;19.60;100497;;;;562722;251;23138;-75
2022/05/15 04:32:03;;;;;;;6.07;1.60;;;20.80;92.40;19.90;100495;;;;573090;247;23157;-76
2022/05/15 04:34:32;;;;;;;6.20;1.67;;;21.10;90.20;19.80;100505;;;;569541;251;23207;-76
2022/05/15 04:37:00;;;;;;;7.17;1.93;;;21.20;88.90;20.30;100505;;;;573644;247;24081;-78
2022/05/15 04:39:32;;;;;;;4.10;1.57;;;21.60;86.80;20.80;100513;;;;562885;251;24113;-76
2022/05/15 04:42:00;;;;;;;5.63;1.50;;;22.80;81.50;21.50;100515;;;;563097;251;24126;-76
2022/05/15 04:44:26;;;;;;;5.13;1.83;;;22.70;80.60;21.90;100530;;;;563322;251;24139;-76
2022/05/15 04:46:54;;;;;;;5.50;1.73;;;23.20;77.10;22.30;100526;;;;576011;247;24114;-78
2022/05/15 04:49:22;;;;;;;6.77;1.83;;;23.50;74.70;22.90;100529;;;;571913;247;24089;-77
2022/05/15 04:51:50;;;;;;;5.27;1.77;;;24.10;71.90;23.20;100529;;;;573004;247;23118;-76
2022/05/15 04:54:18;;;;;;;3.70;1.97;;;24.40;69.80;23.30;100536;;;;589658;242;23187;-76
2022/05/15 04:56:45;;;;;;;5.17;2.27;;;24.60;67.60;23.60;100542;;;;583814;242;24150;-77
2022/05/15 04:59:13;;;;;;;5.50;2.30;;;24.80;65.80;23.80;100543;;;;583954;242;23161;-77
2022/05/15 05:01:41;;;;;;;4.53;2.00;;;25.00;65.50;24.50;100544;;;;584218;242;24082;-78
2022/05/15 05:04:09;;;;;;;4.97;1.97;;;25.70;63.00;24.70;100547;;;;584031;242;23154;-77
2022/05/15 05:06:37;;;;;;;6.43;2.40;;;25.90;61.90;25.10;100545;;;;583939;242;23057;-78
2022/05/15 05:09:05;;;;;;;5.90;2.10;;;26.30;60.50;25.80;100555;;;;584127;242;23064;-77
2022/05/15 05:11:33;;;;;;;8.20;2.10;;;26.80;59.50;26.40;100556;;;;584056;242;23135;-76
2022/05/15 05:14:01;;;;;;;6.80;2.67;;;27.40;58.20;27.00;100559;;;;583563;242;24094;-76
2022/05/15 05:16:30;;;;;;;4.87;1.77;;;28.00;56.70;27.40;100561;;;;582968;242;23048;-76
2022/05/15 05:18:58;;;;;;;7.07;1.90;;;28.50;55.10;27.60;100571;;;;583288;242;23069;-76
2022/05/15 05:21:26;;;;;;;5.35;1.98;;;28.70;53.80;27.80;100570;;;;584215;242;23149;-76
2022/05/15 05:23:54;;;;;;;5.87;1.87;;;28.80;53.00;28.10;100574;;;;585310;242;24077;-76
2022/05/15 05:26:23;;;;;;;6.43;2.20;;;29.10;52.80;28.70;100571;;;;585662;242;23102;-78
2022/05/15 05:28:51;;;;;;;5.18;2.05;;;29.70;51.60;29.40;100583;;;;585480;242;23061;-76
2022/05/15 05:31:19;;;;;;;4.03;1.80;;;30.20;50.90;29.50;100583;;;;585322;242;23055;-77
2022/05/15 05:33:47;;;;;;;3.25;2.10;;;30.40;49.30;29.30;100583;;;;584881;242;24109;-78
2022/05/15 05:36:15;;;;;;;5.82;2.08;;;30.30;49.70;29.40;100593;;;;584395;242;23087;-76
2022/05/15 05:38:43;;;;;;;6.35;1.62;;;30.40;48.60;29.00;100594;;;;584451;242;23068;-77
2022/05/15 05:41:10;;;;;;;6.18;2.12;;;30.10;48.80;28.90;100596;;;;584334;242;23071;-78
2022/05/15 05:43:38;;;;;;;2.42;1.77;;;29.90;48.90;29.00;100594;;;;584284;242;23143;-78
2022/05/15 05:46:06;;;;;;;6.00;2.22;;;29.80;49.20;29.10;100601;;;;584249;242;23141;-77
2022/05/15 05:48:34;;;;;;;4.72;1.80;;;29.90;48.90;29.60;100601;;;;584170;242;26262;-77
2022/05/15 05:51:02;;;;;;;5.45;2.00;;;30.30;49.00;30.20;100601;;;;584082;242;23084;-78
2022/05/15 05:53:30;;;;;;;4.05;1.73;;;30.90;47.80;30.50;100608;;;;584237;242;23088;-79
2022/05/15 05:55:58;;;;;;;5.93;2.28;;;31.20;47.50;31.30;100607;;;;579538;245;23125;-77
2022/05/15 05:58:26;;;;;;;3.20;1.80;;;31.90;46.40;32.00;100609;;;;572111;247;23179;-77
2022/05/15 06:00:54;;;;;;;5.75;1.77;;;32.50;45.80;32.90;100603;;;;575379;247;23064;-79
2022/05/15 06:06:09;;;;;;;2.45;1.70;;;34.10;43.00;33.20;100624;;;;568895;249;24108;-77
2022/05/15 06:08:36;;;;;;;6.57;2.42;;;34.10;43.00;33.40;100618;;;;553086;254;35455;-79
2022/05/15 06:11:04;;;;;;;5.12;1.80;;;34.30;42.30;32.80;100623;;;;566044;253;23154;-76
2022/05/15 06:13:32;;;;;;;5.05;2.05;;;33.80;42.50;33.00;100625;;;;553361;254;35405;-77
2022/05/15 06:16:03;;;;;;;5.90;1.90;;;33.80;42.80;32.90;100624;;;;567354;251;23122;-77
2022/05/15 06:18:28;;;;;;;4.30;2.28;;;33.80;42.50;33.20;100622;;;;568596;251;23164;-79
2022/05/15 06:20:56;;;;;;;5.60;2.58;;;33.90;42.60;33.60;100626;;;;555648;253;35422;-78
2022/05/15 06:23:25;;;;;;;9.02;2.12;;;34.50;41.70;33.80;100628;;;;568158;247;23118;-79
2022/05/15 06:25:53;;;;;;;4.30;2.12;;;35.10;41.60;34.60;100633;;;;574468;247;23056;-77
2022/05/15 06:28:21;;;;;;;4.25;2.30;;;35.10;41.60;35.40;100640;;;;571601;248;23125;-78
2022/05/15 06:30:49;;;;;;;3.45;1.85;;;35.90;40.50;36.10;100636;;;;563195;251;23120;-78
2022/05/15 06:33:20;;;;;;;5.12;2.10;;;36.60;39.90;36.90;100637;;;;578401;247;23099;-76
2022/05/15 06:35:45;;;;;;;4.05;1.67;;;37.30;39.00;37.30;100647;;;;574916;246;23144;-76
2022/05/15 06:38:14;;;;;;;5.53;2.50;;;37.70;38.20;37.60;100649;;;;570185;246;35294;-81
2022/05/15 06:40:42;;;;;;;4.20;1.67;;;38.20;37.70;37.80;100652;;;;573900;247;23158;-81
2022/05/15 06:43:10;;;;;;;4.45;2.00;;;38.40;37.30;38.00;100653;;;;574683;247;23115;-79
2022/05/15 06:45:38;;;;;;;3.12;2.03;;;38.70;37.00;37.80;100667;;;;563004;251;24184;-79
2022/05/15 06:48:10;;;;;;;5.28;1.95;;;38.60;36.60;37.80;100659;;;;572741;251;23135;-80
2022/05/15 06:50:35;;;;;;;4.18;2.00;;;38.50;36.40;37.50;100667;;;;581982;247;23042;-79
2022/05/15 06:53:03;;;;;;;4.25;2.10;;;38.30;36.70;37.30;100670;;;;572080;247;23066;-79
2022/05/15 06:55:31;;;;;;;4.68;1.90;;;37.90;36.90;37.40;100667;;;;561676;248;23140;-79
2022/05/15 06:57:59;;;;;;;3.50;2.10;;;38.00;37.00;37.50;100672;;;;578578;248;23108;-79
2022/05/15 07:00:31;;;;;;;3.95;1.90;;;38.30;36.70;37.80;100664;;;;562091;251;24141;-80
2022/05/15 07:02:58;;;;;;;6.00;2.58;;;38.20;36.60;37.80;100669;;;;568875;251;23136;-80
2022/05/15 07:05:30;;;;;;;9.77;2.28;;;38.30;36.30;38.20;100674;;;;570110;248;23088;-80
2022/05/15 07:07:54;;;;;;;3.58;2.08;;;38.50;36.50;38.40;100675;;;;571848;251;23138;-77
2022/05/15 07:10:25;;;;;;;5.20;2.20;;;38.80;35.90;38.70;100680;;;;562972;251;23116;-78
2022/05/15 07:12:54;;;;;;;4.60;1.83;;;39.30;35.30;39.00;100693;;;;562224;251;23146;-79
2022/05/15 07:15:22;;;;;;;2.70;1.80;;;39.30;35.30;38.90;100695;;;;552950;251;23006;-79
2022/05/15 07:17:47;;;;;;;5.32;2.47;;;39.50;35.00;39.30;100696;;;;580312;247;23030;-79
2022/05/15 07:20:15;;;;;;;8.65;2.05;;;39.70;34.90;39.20;100704;;;;574188;247;24053;-78
2022/05/15 07:22:43;;;;;;;5.80;2.53;;;39.70;34.60;39.70;100704;;;;567372;250;23185;-78
2022/05/15 07:25:11;;;;;;;3.08;2.20;;;40.10;34.30;40.10;100707;;;;564130;247;23103;-80
2022/05/15 07:27:39;;;;;;;4.87;2.25;;;40.50;34.30;40.80;100710;;;;574633;247;23072;-80
2022/05/15 07:30:07;;;;;;;3.97;1.80;;;41.00;33.90;41.30;100702;;;;567786;249;23126;-78
2022/05/15 07:32:35;;;;;;;5.60;2.25;;;41.70;33.20;41.70;100703;;;;562372;247;23003;-81
2022/05/15 07:35:07;;;;;;;5.22;1.95;;;42.10;32.80;42.00;100709;;;;558785;255;23148;-80
2022/05/15 07:37:31;;;;;;;5.47;2.55;;;42.40;32.50;42.30;100707;;;;569301;247;23089;-81
2022/05/15 07:39:59;;;;;;;2.03;1.50;;;42.70;31.90;42.30;100716;;;;567029;247;23141;-80
2022/05/15 07:42:27;;;;;;;4.43;2.15;;;42.90;31.70;42.40;100719;;;;581069;247;23040;-82
2022/05/15 07:44:57;;;;;;;6.20;2.03;;;42.90;31.40;42.20;100717;;;;571250;252;23125;-81
2022/05/15 07:47:23;;;;;;;5.15;1.87;;;42.90;31.30;42.30;100718;;;;564182;251;23105;-81
2022/05/15 07:49:51;;;;;;;3.15;1.73;;;42.90;31.50;42.40;100716;;;;576359;246;23097;-81
2022/05/15 07:52:22;;;;;;;5.20;2.10;;;43.00;31.40;42.60;100720;;;;563151;251;23190;-79
2022/05/15 07:54:47;;;;;;;5.40;2.12;;;43.00;31.80;42.70;100719;;;;573362;247;23133;-80
2022/05/15 07:57:14;;;;;;;2.75;1.80;;;43.20;31.00;42.60;100717;;;;562144;251;23130;-82
2022/05/15 07:59:42;;;;;;;2.65;2.05;;;43.10;31.00;42.50;100716;;;;572992;247;23105;-81
2022/05/15 08:02:10;;;;;;;4.50;1.98;;;43.00;31.10;42.40;100715;;;;562196;251;23141;-81
2022/05/15 08:10:11;;;;;;;3.42;1.77;;;40.60;32.40;40.10;100725;;;;581792;245;23097;-78
2022/05/15 08:12:39;;;;;;;3.12;1.92;;;40.60;32.40;40.70;100717;;;;564203;251;23208;-80
2022/05/15 08:15:07;;;;;;;4.07;1.80;;;41.10;32.10;41.30;100733;;;;572526;247;23111;-79
2022/05/15 08:17:35;;;;;;;4.43;2.03;;;41.90;31.40;41.50;100721;;;;570057;248;23110;-80
2022/05/15 08:23:37;;;;;;;3.17;1.62;;;42.10;31.20;41.90;100729;;;;572566;247;23150;-79
2022/05/15 08:25:20;;;;;;;2.67;1.62;;;42.40;30.80;42.10;100729;;;;582900;242;24126;-82
2022/05/15 08:27:48;;;;;;;2.08;1.50;;;42.60;30.50;42.60;100732;;;;583366;242;23083;-82
2022/05/15 08:30:17;;;;;;;2.78;1.58;;;43.20;30.40;42.60;100727;;;;583368;242;24121;-78
2022/05/15 08:32:45;;;;;;;2.75;1.70;;;43.20;30.30;42.80;100733;;;;583499;242;23052;-80
2022/05/15 08:35:13;;;;;;;1.67;1.10;;;43.40;30.60;43.30;100729;;;;583584;242;23103;-82
2022/05/15 08:37:42;;;;;;;3.45;1.70;;;43.80;29.90;43.60;100740;;;;583456;242;23103;-79
2022/05/15 08:40:09;;;;;;;2.30;1.70;;;44.20;29.70;43.10;100736;;;;583421;242;23094;-80
2022/05/15 08:42:43;;;;;;;3.47;2.03;;;44.10;29.60;42.10;100736;;;;583381;242;24094;-78
2022/05/15 08:45:11;;;;;;;4.25;1.73;;;43.10;30.20;42.30;100736;;;;570305;247;23095;-76
2022/05/15 08:47:48;;;;;;;2.08;1.40;;;43.20;30.20;42.90;100734;;;;584008;242;23090;-79
2022/05/15 08:50:22;;;;;;;2.45;1.67;;;43.60;30.50;43.60;100748;;;;583952;242;23156;-76
2022/05/15 08:53:06;;;;;;;3.58;1.77;;;44.80;29.40;44.10;100748;;;;583087;242;23133;-80
2022/05/15 08:55:43;;;;;;;3.53;1.40;;;44.70;29.30;44.10;100743;;;;562795;251;23145;-80
2022/05/15 08:58:16;;;;;;;5.12;1.77;;;44.90;29.20;44.40;100746;;;;573414;242;23107;-82
2022/05/15 09:00:44;;;;;;;2.10;1.17;;;45.20;29.20;44.00;100741;;;;580787;242;24133;-82
2022/05/15 09:03:24;;;;;;;3.62;1.25;;;45.20;28.90;44.20;100750;;;;583488;242;23103;-80
2022/05/15 09:06:32;;;;;;;4.25;1.90;;;45.20;28.40;43.90;100748;;;;574714;247;23114;-79
2022/05/15 09:09:23;;;;;;;3.58;1.40;;;45.10;28.40;44.30;100755;;;;580349;247;23087;-81
2022/05/15 09:12:03;;;;;;;6.43;1.52;;;45.40;28.20;44.20;100750;;;;579790;247;23095;-79
2022/05/15 09:15:01;;;;;;;2.47;1.50;;;45.40;28.40;44.00;100765;;;;571902;247;23065;-78
2022/05/15 09:17:47;;;;;;;7.05;1.48;;;45.20;28.40;43.20;100762;;;;579950;242;23116;-79
2022/05/15 09:20:35;;;;;;;1.10;0.98;;;44.50;28.30;42.10;100770;;;;581181;247;24121;-78
2022/05/15 09:23:10;;;;;;;2.33;1.45;;;43.70;28.50;41.60;100760;;;;568072;248;23133;-77
2022/05/15 09:25:34;;;;;;;2.92;1.33;;;43.10;29.00;42.50;100757;;;;571883;247;23121;-78
2022/05/15 09:28:05;;;;;;;4.12;1.45;;;43.60;29.20;43.10;100749;;;;572939;247;23081;-80
2022/05/15 09:30:36;;;;;;;2.90;1.65;;;44.20;28.90;43.30;100757;;;;560302;251;23031;-79
2022/05/15 09:33:03;;;;;;;3.62;1.52;;;44.60;28.50;43.20;100755;;;;573018;247;23053;-79
2022/05/15 09:35:40;;;;;;;5.18;1.60;;;44.70;28.80;43.60;100763;;;;571783;247;23065;-78
2022/05/15 09:43:38;;;;;;;2.47;1.50;;;42.80;29.40;40.90;100776;;;;561065;251;23121;-80
2022/05/15 09:46:09;;;;;;;3.25;1.55;;;42.70;29.40;40.80;100769;;;;565270;247;35174;-78
2022/05/15 09:48:43;;;;;;;2.15;1.52;;;42.60;29.50;39.60;100771;;;;569999;251;23113;-83
2022/05/15 09:51:06;;;;;;;2.42;1.23;;;41.70;29.60;38.40;100773;;;;554478;253;23119;-81
2022/05/15 09:53:46;;;;;;;1.95;1.35;;;40.50;30.00;37.80;100769;;;;556295;257;23156;-81
2022/05/15 09:56:25;;;;;;;1.60;1.15;;;39.60;31.70;38.50;100755;;;;558944;253;23115;-78
2022/05/15 09:58:53;;;;;;;2.53;1.73;;;40.70;31.20;39.80;100770;;;;558597;253;23157;-80
2022/05/15 10:01:36;;;;;;;3.20;2.65;;;41.50;30.90;40.20;100768;;;;558637;253;23201;-80
2022/05/15 10:04:25;;;;;;;2.53;1.90;;;41.40;30.10;40.40;100774;;;;567010;252;25176;-81
2022/05/15 10:06:49;;;;;;;1.83;1.30;;;41.80;30.00;40.30;100776;;;;558506;253;23137;-78
2022/05/15 10:09:40;;;;;;;3.67;1.37;;;42.00;29.70;39.50;100778;;;;558938;251;23166;-81
2022/05/15 10:12:24;;;;;;;3.35;1.20;;;41.50;29.80;37.80;100784;;;;560203;252;23138;-80
2022/05/15 10:14:52;;;;;;;2.22;1.23;;;39.80;30.60;37.40;100773;;;;567793;247;23113;-81
2022/05/15 10:17:20;;;;;;;2.75;1.33;;;38.90;31.60;36.80;100776;;;;559470;253;23137;-81
2022/05/15 10:20:12;;;;;;;1.77;0.95;;;38.40;31.50;36.20;100775;;;;559442;252;24204;-79
2022/05/15 10:22:59;;;;;;;5.45;1.33;;;37.80;32.10;35.30;100776;;;;559760;253;23106;-78
2022/05/15 10:26:00;;;;;;;2.60;1.50;;;37.00;32.90;34.70;100765;;;;554261;253;35425;-80
2022/05/15 10:28:44;;;;;;;3.62;1.00;;;36.30;33.80;34.80;100767;;;;557342;253;23172;-76
2022/05/15 10:31:31;;;;;;;2.90;1.20;;;36.20;33.90;34.70;100773;;;;559160;253;23141;-80
2022/05/15 10:33:59;;;;;;;4.00;1.30;;;36.10;34.00;33.90;100769;;;;559437;252;23165;-80
2022/05/15 10:36:52;;;;;;;1.50;0.90;;;35.50;34.80;32.90;100768;;;;559750;252;23153;-81
2022/05/15 10:39:37;;;;;;;1.50;1.12;;;34.30;35.40;31.50;100774;;;;559833;253;23158;-79
2022/05/15 10:42:13;;;;;;;6.20;1.10;;;32.80;36.80;30.00;100767;;;;559020;253;23132;-81
2022/05/15 10:45:06;;;;;;;1.45;0.82;;;31.00;38.30;28.30;100769;;;;559438;253;23119;-80
2022/05/15 10:48:08;;;;;;;1.58;0.90;;;29.30;39.90;26.70;100760;;;;558700;253;23137;-81
2022/05/15 10:51:00;;;;;;;2.07;0.90;;;27.60;42.40;25.30;100763;;;;567385;249;23138;-77
2022/05/15 10:59:54;;;;;;;3.23;1.50;;;24.20;48.30;22.90;100756;;;;553001;256;24259;-79
2022/05/15 11:02:49;;;;;;;3.23;1.47;;;23.40;49.80;22.30;100758;;;;551451;258;23179;-78
2022/05/15 11:05:30;;;;;;;4.20;1.10;;;22.80;51.10;21.80;100759;;;;548702;257;24187;-76
2022/05/15 11:08:30;;;;;;;1.97;0.73;;;22.20;52.40;21.60;100760;;;;554400;253;24189;-78
2022/05/15 11:11:16;;;;;;;2.90;0.80;;;21.90;53.80;20.90;100745;;;;547836;258;24220;-79
2022/05/15 11:13:52;;;;;;;3.03;0.87;;;21.40;53.10;20.40;100759;;;;548194;258;24151;-78
2022/05/15 11:16:42;;;;;;;1.43;0.90;;;20.50;55.80;19.90;100743;;;;547767;258;24182;-76
2022/05/15 11:19:37;;;;;;;3.17;1.50;;;20.40;55.70;19.60;100740;;;;546708;258;24227;-80
2022/05/15 11:22:31;;;;;;;2.40;1.10;;;19.90;57.30;19.50;100744;;;;554020;256;24160;-81
2022/05/15 11:25:09;;;;;;;2.07;1.20;;;19.90;57.80;19.40;100746;;;;552836;255;24141;-82
2022/05/15 11:27:58;;;;;;;0.80;0.80;;;19.80;58.30;19.40;100749;;;;549069;258;24218;-80
2022/05/15 11:30:29;;;;;;;1.37;0.67;;;19.80;57.40;19.30;100747;;;;549477;256;24221;-80
2022/05/15 11:33:03;;;;;;;2.10;0.83;;;19.80;57.50;19.30;100743;;;;548758;257;24185;-75
2022/05/15 11:35:31;;;;;;;3.07;0.70;;;19.70;58.20;19.10;100745;;;;554293;253;24181;-78
2022/05/15 11:38:01;;;;;;;2.27;1.00;;;19.60;58.10;19.00;100738;;;;549304;258;24134;-77
2022/05/15 11:40:31;;;;;;;1.60;1.07;;;19.50;58.60;19.00;100738;;;;548635;258;24176;-79
2022/05/15 11:42:59;;;;;;;2.03;1.33;;;19.50;58.90;19.00;100749;;;;555404;258;23142;-80
2022/05/15 11:45:30;;;;;;;6.47;1.67;;;19.50;58.90;19.10;100743;;;;548973;258;23295;-80
2022/05/15 11:48:01;;;;;;;4.17;1.17;;;19.60;59.90;19.30;100735;;;;557089;256;24187;-80
2022/05/15 11:50:31;;;;;;;3.60;1.10;;;19.80;59.30;19.60;100740;;;;547575;258;24139;-79
2022/05/15 11:52:59;;;;;;;1.73;0.70;;;20.00;59.20;19.60;100740;;;;548242;258;24182;-80
2022/05/15 11:55:37;;;;;;;0.90;0.67;;;20.10;58.70;19.80;100739;;;;548341;258;24149;-78
2022/05/15 11:58:26;;;;;;;1.80;1.20;;;20.30;58.50;20.00;100743;;;;556161;256;23170;-80